Time;durP1;ratioP1;P1;durP2;ratioP2;P2;SDS_P1;SDS_P2;PMS_P1;PMS_P2;Temp;Humidity;BMP_temperature;BMP_pressure;BME280_temperature;BME280_humidity;BME280_pressure;Samples;Min_cycle;Max_cycle;Signal;HPM_P1;HPM_P2
2021/05/08 00:01:16;;;;;;;11.27;5.50;;;7.40;70.90;;;;;;5077119;28;20024;-72
2021/05/08 00:03:41;;;;;;;13.27;6.13;;;7.40;71.00;;;;;;5056465;28;20095;-72
2021/05/08 00:06:09;;;;;;;8.85;5.13;;;7.40;71.10;;;;;;5085186;28;20047;-72
2021/05/08 00:08:35;;;;;;;9.57;5.65;;;7.40;71.80;;;;;;5080765;28;20552;-72
2021/05/08 00:11:01;;;;;;;7.07;4.85;;;7.50;71.40;;;;;;5057778;28;20032;-73
2021/05/08 00:13:27;;;;;;;8.93;5.43;;;7.50;71.40;;;;;;5093308;28;20381;-72
2021/05/08 00:15:52;;;;;;;7.18;4.95;;;7.50;71.50;;;;;;5092415;28;20032;-72
2021/05/08 00:18:18;;;;;;;8.02;4.90;;;7.50;71.50;;;;;;5073958;28;20028;-72
2021/05/08 00:20:43;;;;;;;7.25;4.82;;;7.50;71.50;;;;;;5095691;28;20043;-73
2021/05/08 00:23:09;;;;;;;7.03;5.10;;;7.50;71.40;;;;;;5077149;28;20115;-72
2021/05/08 00:25:35;;;;;;;7.43;4.28;;;7.60;71.20;;;;;;5075482;28;20028;-72
2021/05/08 00:28:01;;;;;;;6.47;4.65;;;7.50;71.00;;;;;;5087558;28;20672;-72
2021/05/08 00:30:26;;;;;;;17.17;4.80;;;7.60;70.70;;;;;;5095611;28;20028;-72
2021/05/08 00:32:52;;;;;;;10.63;5.05;;;7.50;70.50;;;;;;5063523;28;20038;-72
2021/05/08 00:35:17;;;;;;;7.35;4.93;;;7.50;70.20;;;;;;5060646;28;20028;-72
2021/05/08 00:37:43;;;;;;;8.48;5.10;;;7.50;70.10;;;;;;5093365;28;20518;-72
2021/05/08 00:40:10;;;;;;;7.40;5.18;;;7.50;70.20;;;;;;5093452;28;20392;-72
2021/05/08 00:42:36;;;;;;;9.52;5.13;;;7.40;70.00;;;;;;5093192;28;20123;-72
2021/05/08 00:45:02;;;;;;;6.28;4.80;;;7.30;70.00;;;;;;5094059;28;20103;-72
2021/05/08 00:47:28;;;;;;;8.70;5.40;;;7.30;70.30;;;;;;5074204;28;20028;-73
2021/05/08 00:49:54;;;;;;;7.45;5.20;;;7.20;70.40;;;;;;5074616;28;20055;-73
2021/05/08 00:52:19;;;;;;;11.05;6.05;;;7.20;70.70;;;;;;5086940;28;20388;-72
2021/05/08 00:54:45;;;;;;;9.43;5.55;;;7.20;71.00;;;;;;5075340;28;20468;-72
2021/05/08 00:57:11;;;;;;;7.25;4.97;;;7.10;71.20;;;;;;5074243;28;20036;-72
2021/05/08 00:59:37;;;;;;;8.48;5.03;;;7.20;71.50;;;;;;5093568;28;20361;-72
2021/05/08 01:02:04;;;;;;;6.57;4.82;;;7.20;71.60;;;;;;5074665;28;20032;-72
2021/05/08 01:04:34;;;;;;;9.32;5.53;;;7.20;71.50;;;;;;5068527;28;20107;-72
2021/05/08 01:07:00;;;;;;;7.65;5.15;;;7.20;71.40;;;;;;5082425;28;20031;-72
2021/05/08 01:09:26;;;;;;;6.85;5.13;;;7.20;71.30;;;;;;5093361;28;20049;-73
2021/05/08 01:11:52;;;;;;;8.50;5.60;;;7.20;71.10;;;;;;5092989;28;20152;-72
2021/05/08 01:14:18;;;;;;;8.23;5.60;;;7.20;71.10;;;;;;5073780;28;20511;-72
2021/05/08 01:16:44;;;;;;;11.90;5.75;;;7.30;71.10;;;;;;5086165;28;20025;-72
2021/05/08 01:19:14;;;;;;;8.55;6.05;;;7.20;71.00;;;;;;5074899;28;20028;-72
2021/05/08 01:21:40;;;;;;;11.65;6.53;;;7.20;70.80;;;;;;5092885;28;20028;-73
2021/05/08 01:24:06;;;;;;;10.93;6.40;;;7.20;70.60;;;;;;5091458;28;20028;-72
2021/05/08 01:26:32;;;;;;;11.52;6.07;;;7.20;70.70;;;;;;5093437;28;20381;-72
2021/05/08 01:28:58;;;;;;;8.82;5.90;;;7.10;70.70;;;;;;5074016;28;20040;-72
2021/05/08 01:31:24;;;;;;;8.90;5.72;;;7.10;70.80;;;;;;5087201;28;20650;-72
2021/05/08 01:33:50;;;;;;;8.60;5.20;;;7.10;70.70;;;;;;5073277;28;20052;-72
2021/05/08 01:36:16;;;;;;;6.38;5.22;;;7.10;70.80;;;;;;5062866;28;602647;-73
2021/05/08 01:38:43;;;;;;;9.77;5.90;;;7.00;70.70;;;;;;5064095;28;20028;-72
2021/05/08 01:41:11;;;;;;;7.05;5.55;;;7.10;70.80;;;;;;5073559;28;20029;-72
2021/05/08 01:43:37;;;;;;;9.57;5.33;;;7.00;70.70;;;;;;5076164;28;20112;-73
2021/05/08 01:46:03;;;;;;;8.85;5.30;;;7.00;70.70;;;;;;5064755;28;20318;-72
2021/05/08 01:48:29;;;;;;;6.45;5.20;;;7.00;71.00;;;;;;5085928;28;20032;-72
2021/05/08 01:50:55;;;;;;;9.50;5.93;;;7.00;71.00;;;;;;5074314;28;20533;-72
2021/05/08 01:53:21;;;;;;;12.27;5.93;;;7.00;71.10;;;;;;5080679;28;20044;-72
2021/05/08 01:55:48;;;;;;;7.28;5.20;;;7.00;71.10;;;;;;5093319;28;20019;-72
2021/05/08 01:58:14;;;;;;;6.50;5.18;;;7.00;70.90;;;;;;5093277;28;20028;-72
2021/05/08 02:00:42;;;;;;;6.63;5.22;;;7.10;71.10;;;;;;5088360;28;20043;-72
2021/05/08 02:03:09;;;;;;;12.70;5.65;;;7.10;71.20;;;;;;5078667;28;20041;-73
2021/05/08 02:05:37;;;;;;;7.25;4.80;;;7.10;71.20;;;;;;5058047;28;20040;-72
2021/05/08 02:08:06;;;;;;;6.90;4.80;;;7.10;71.20;;;;;;5086626;28;20469;-73
2021/05/08 02:10:32;;;;;;;7.32;5.50;;;7.10;71.10;;;;;;5074408;28;20059;-72
2021/05/08 02:13:00;;;;;;;10.57;5.43;;;7.10;71.20;;;;;;5091945;28;20024;-72
2021/05/08 02:15:26;;;;;;;8.77;5.28;;;7.10;71.20;;;;;;5092804;28;20500;-72
2021/05/08 02:17:51;;;;;;;6.15;4.78;;;7.10;71.20;;;;;;5074299;28;20055;-72
2021/05/08 02:20:21;;;;;;;5.72;4.68;;;7.10;71.30;;;;;;5074308;28;20477;-72
2021/05/08 02:22:48;;;;;;;9.00;5.28;;;7.10;71.20;;;;;;5089403;28;20052;-72
2021/05/08 02:25:14;;;;;;;7.13;4.90;;;7.10;71.00;;;;;;5077184;28;20032;-72
2021/05/08 02:27:40;;;;;;;7.03;4.78;;;7.10;71.30;;;;;;5084930;28;20076;-72
2021/05/08 02:30:09;;;;;;;5.75;5.18;;;7.10;71.70;;;;;;5097554;28;20064;-72
2021/05/08 02:32:36;;;;;;;6.28;5.00;;;7.10;72.00;;;;;;5092642;28;20118;-73
2021/05/08 02:35:03;;;;;;;7.05;4.85;;;7.00;72.10;;;;;;5080797;28;20531;-74
2021/05/08 02:37:28;;;;;;;7.53;4.65;;;7.00;72.10;;;;;;5091754;28;20051;-72
2021/05/08 02:39:54;;;;;;;7.03;4.95;;;7.10;72.20;;;;;;5074036;28;20032;-72
2021/05/08 02:42:20;;;;;;;7.00;5.45;;;7.00;71.90;;;;;;5092210;28;20031;-72
2021/05/08 02:44:45;;;;;;;5.38;4.88;;;7.00;72.10;;;;;;5080576;28;20385;-72
2021/05/08 02:47:18;;;;;;;8.82;5.53;;;7.00;72.30;;;;;;5091108;28;20027;-72
2021/05/08 02:49:48;;;;;;;7.43;5.07;;;7.00;73.10;;;;;;5078621;28;20020;-72
2021/05/08 02:52:14;;;;;;;11.48;5.28;;;7.00;72.60;;;;;;5054789;28;20401;-72
2021/05/08 02:54:40;;;;;;;6.93;5.10;;;7.00;72.60;;;;;;5072421;28;20085;-72
2021/05/08 02:57:06;;;;;;;7.75;5.32;;;7.10;72.60;;;;;;5092522;28;20023;-72
2021/05/08 02:59:32;;;;;;;8.23;5.35;;;7.10;72.70;;;;;;5092230;28;20481;-72
2021/05/08 03:01:57;;;;;;;9.73;5.20;;;7.00;72.80;;;;;;5092268;28;20032;-72
2021/05/08 03:04:23;;;;;;;7.15;5.28;;;7.00;73.00;;;;;;5074301;28;20036;-72
2021/05/08 03:06:49;;;;;;;7.82;5.30;;;6.90;73.10;;;;;;5092236;28;20039;-72
2021/05/08 03:09:14;;;;;;;10.15;5.53;;;6.90;73.10;;;;;;5072363;28;20035;-72
2021/05/08 03:11:41;;;;;;;8.82;5.50;;;6.90;73.10;;;;;;5092804;28;20036;-72
2021/05/08 03:14:07;;;;;;;7.78;5.47;;;6.80;73.50;;;;;;5075100;28;20058;-72
2021/05/08 03:16:33;;;;;;;9.18;5.68;;;6.80;73.70;;;;;;5067768;28;20386;-73
2021/05/08 03:18:59;;;;;;;9.00;5.65;;;6.80;73.90;;;;;;5073147;28;20032;-73
2021/05/08 03:21:25;;;;;;;11.63;5.65;;;6.80;73.90;;;;;;5091390;28;20461;-72
2021/05/08 03:23:51;;;;;;;8.32;5.68;;;6.80;73.90;;;;;;5092652;28;20073;-73
2021/05/08 03:26:16;;;;;;;9.00;6.00;;;6.80;74.00;;;;;;5073575;28;20025;-73
2021/05/08 03:28:42;;;;;;;9.40;5.65;;;6.80;73.90;;;;;;5073935;28;20083;-72
2021/05/08 03:31:08;;;;;;;9.50;5.35;;;6.80;74.20;;;;;;5064690;28;20044;-72
2021/05/08 03:33:34;;;;;;;9.15;5.53;;;6.80;73.60;;;;;;5074299;28;20032;-73
2021/05/08 03:35:59;;;;;;;7.63;5.47;;;6.80;73.60;;;;;;5091888;28;20143;-72
2021/05/08 03:38:25;;;;;;;6.65;5.35;;;6.80;73.60;;;;;;5074047;28;20096;-72
2021/05/08 03:40:50;;;;;;;9.50;5.88;;;6.70;73.40;;;;;;5073573;28;20028;-72
2021/05/08 03:43:16;;;;;;;8.40;5.78;;;6.70;73.30;;;;;;5068109;28;20036;-72
2021/05/08 03:45:42;;;;;;;9.35;5.90;;;6.70;73.20;;;;;;5083022;28;20044;-72
2021/05/08 03:48:07;;;;;;;9.13;6.05;;;6.70;73.20;;;;;;5087917;28;20048;-72
2021/05/08 03:50:33;;;;;;;10.63;6.10;;;6.70;73.20;;;;;;5082112;28;20107;-72
2021/05/08 03:52:59;;;;;;;7.80;6.28;;;6.60;73.00;;;;;;5089488;28;20116;-72
2021/05/08 03:55:25;;;;;;;10.63;6.85;;;6.70;72.90;;;;;;5092188;28;20134;-72
2021/05/08 03:57:50;;;;;;;8.43;6.35;;;6.70;72.90;;;;;;5091736;28;20528;-72
2021/05/08 04:00:17;;;;;;;11.98;7.35;;;6.70;72.60;;;;;;5056728;28;20082;-72
2021/05/08 04:02:42;;;;;;;9.77;6.88;;;6.60;72.40;;;;;;5054837;28;20024;-72
2021/05/08 04:05:09;;;;;;;9.48;6.95;;;6.60;72.70;;;;;;5077312;28;20132;-72
2021/05/08 04:07:34;;;;;;;11.70;7.25;;;6.60;72.70;;;;;;5083492;28;20032;-72
2021/05/08 04:10:00;;;;;;;9.57;7.07;;;6.70;73.10;;;;;;5069101;28;20036;-72
2021/05/08 04:12:26;;;;;;;9.50;7.05;;;6.70;72.40;;;;;;5095276;28;20046;-72
2021/05/08 04:14:52;;;;;;;7.90;6.50;;;6.70;72.50;;;;;;5060488;28;20065;-72
2021/05/08 04:17:18;;;;;;;9.30;6.90;;;6.70;72.50;;;;;;5095500;28;20382;-72
2021/05/08 04:19:43;;;;;;;10.20;7.05;;;6.70;72.50;;;;;;5062804;28;20040;-72
2021/05/08 04:22:10;;;;;;;13.00;7.00;;;6.70;72.50;;;;;;5077737;28;20063;-72
2021/05/08 04:24:36;;;;;;;13.10;7.68;;;6.70;72.30;;;;;;5076506;28;20028;-72
2021/05/08 04:27:01;;;;;;;12.63;7.07;;;6.70;72.50;;;;;;5078594;28;20141;-72
2021/05/08 04:29:27;;;;;;;12.38;7.20;;;6.70;72.50;;;;;;5081770;28;20028;-72
2021/05/08 04:31:52;;;;;;;10.75;7.40;;;6.80;72.20;;;;;;5060546;28;20039;-72
2021/05/08 04:34:19;;;;;;;10.43;7.05;;;6.80;72.00;;;;;;5077099;28;20115;-72
2021/05/08 04:36:45;;;;;;;11.95;7.40;;;6.90;71.80;;;;;;5077935;28;20097;-72
2021/05/08 04:39:10;;;;;;;12.10;7.75;;;6.90;71.80;;;;;;5057362;28;20028;-73
2021/05/08 04:41:36;;;;;;;9.85;7.15;;;6.90;71.70;;;;;;5066410;28;20029;-72
2021/05/08 04:44:02;;;;;;;9.60;7.20;;;7.10;71.50;;;;;;5057018;28;20039;-72
2021/05/08 04:46:27;;;;;;;11.05;7.85;;;7.10;71.30;;;;;;5087123;28;20033;-73
2021/05/08 04:48:54;;;;;;;10.00;7.43;;;7.20;71.20;;;;;;5087616;28;20035;-73
2021/05/08 04:51:21;;;;;;;12.25;6.90;;;7.30;70.80;;;;;;5056708;28;20032;-72
2021/05/08 04:53:48;;;;;;;9.70;7.07;;;7.40;70.50;;;;;;5088771;28;20028;-72
2021/05/08 04:56:15;;;;;;;11.88;7.50;;;7.40;70.20;;;;;;5091602;28;20067;-72
2021/05/08 04:58:41;;;;;;;13.23;7.18;;;7.50;70.00;;;;;;5094710;28;20496;-73
2021/05/08 05:01:07;;;;;;;12.18;6.60;;;7.60;69.90;;;;;;5072931;28;20051;-72
2021/05/08 05:03:32;;;;;;;9.13;7.10;;;7.60;69.40;;;;;;5076496;28;20024;-72
2021/05/08 05:05:58;;;;;;;8.80;6.80;;;7.70;69.00;;;;;;5073266;28;20437;-72
2021/05/08 05:08:24;;;;;;;10.98;6.93;;;7.80;69.00;;;;;;5093540;28;20032;-72
2021/05/08 05:10:50;;;;;;;10.40;6.90;;;7.90;68.70;;;;;;5088188;28;20099;-72
2021/05/08 05:13:16;;;;;;;10.23;7.10;;;7.90;69.10;;;;;;5089090;28;20016;-72
2021/05/08 05:15:42;;;;;;;8.80;7.05;;;8.00;68.30;;;;;;5081654;28;20487;-72
2021/05/08 05:18:08;;;;;;;12.98;7.00;;;8.00;68.00;;;;;;5052364;28;20027;-72
2021/05/08 05:20:33;;;;;;;12.43;7.13;;;8.10;67.90;;;;;;5055917;28;20039;-72
2021/05/08 05:22:59;;;;;;;9.05;6.85;;;8.10;67.90;;;;;;5071439;28;20052;-72
2021/05/08 05:25:24;;;;;;;11.27;7.05;;;8.20;67.80;;;;;;5060504;28;20036;-72
2021/05/08 05:27:50;;;;;;;10.23;6.25;;;8.20;67.70;;;;;;5075729;28;20028;-73
2021/05/08 05:30:16;;;;;;;10.07;6.45;;;8.30;67.60;;;;;;5086552;28;20047;-72
2021/05/08 05:32:41;;;;;;;9.15;6.95;;;8.30;67.50;;;;;;5089461;28;20028;-72
2021/05/08 05:35:08;;;;;;;9.18;6.78;;;8.40;67.40;;;;;;5066255;28;20036;-72
2021/05/08 05:37:33;;;;;;;10.10;6.13;;;8.40;67.40;;;;;;5066525;28;20048;-72
2021/05/08 05:39:59;;;;;;;9.05;6.63;;;8.40;67.40;;;;;;5082746;28;20499;-72
2021/05/08 05:42:24;;;;;;;10.75;6.95;;;8.40;67.30;;;;;;5072691;28;20032;-72
2021/05/08 05:44:50;;;;;;;12.05;6.70;;;8.50;67.20;;;;;;5076008;28;20388;-72
2021/05/08 05:47:22;;;;;;;10.18;6.88;;;8.50;67.10;;;;;;5076755;28;20081;-72
2021/05/08 05:49:52;;;;;;;10.27;6.38;;;8.50;67.20;;;;;;5086071;28;20386;-73
2021/05/08 05:52:19;;;;;;;11.52;6.53;;;8.60;67.20;;;;;;5085356;28;20028;-72
2021/05/08 05:54:46;;;;;;;10.70;6.60;;;8.70;67.30;;;;;;5081330;28;20040;-72
2021/05/08 05:57:12;;;;;;;12.35;6.80;;;8.70;67.10;;;;;;5076111;28;20039;-72
2021/05/08 05:59:38;;;;;;;10.23;6.05;;;8.80;66.80;;;;;;5078698;28;20028;-72
2021/05/08 06:02:05;;;;;;;8.80;5.88;;;8.90;66.60;;;;;;5074500;28;20477;-72
2021/05/08 06:04:32;;;;;;;7.57;5.80;;;9.00;66.30;;;;;;5057665;28;20622;-72
2021/05/08 06:06:57;;;;;;;9.18;6.00;;;9.10;66.30;;;;;;5084318;28;20397;-72
2021/05/08 06:09:25;;;;;;;8.50;5.60;;;9.30;66.40;;;;;;5043615;28;20036;-72
2021/05/08 06:11:55;;;;;;;10.25;6.00;;;9.30;66.20;;;;;;5071462;28;20028;-72
2021/05/08 06:14:21;;;;;;;11.18;5.80;;;9.30;65.80;;;;;;5093325;28;20028;-72
2021/05/08 06:16:47;;;;;;;9.65;5.50;;;9.40;65.40;;;;;;5082184;28;20056;-72
2021/05/08 06:19:13;;;;;;;8.30;5.88;;;9.50;65.40;;;;;;5050752;28;20501;-72
2021/05/08 06:21:39;;;;;;;8.02;5.40;;;9.50;65.20;;;;;;5097531;28;20038;-72
2021/05/08 06:24:11;;;;;;;7.10;5.53;;;9.60;65.30;;;;;;5075195;28;20024;-73
2021/05/08 06:26:37;;;;;;;6.20;4.93;;;9.70;64.90;;;;;;5073089;28;20431;-72
2021/05/08 06:29:04;;;;;;;8.82;5.18;;;9.70;64.60;;;;;;5093484;28;20032;-72
2021/05/08 06:31:30;;;;;;;9.35;5.57;;;9.80;64.50;;;;;;5079869;28;20036;-72
2021/05/08 06:33:56;;;;;;;10.75;4.93;;;9.90;64.40;;;;;;5093238;28;20492;-72
2021/05/08 06:36:22;;;;;;;8.23;4.90;;;10.00;63.60;;;;;;5058085;28;20044;-72
2021/05/08 06:38:48;;;;;;;7.32;4.90;;;10.20;63.40;;;;;;5093285;28;20036;-72
2021/05/08 06:41:14;;;;;;;6.60;4.50;;;10.20;63.20;;;;;;5075099;28;20301;-73
2021/05/08 06:43:39;;;;;;;8.80;5.43;;;10.30;63.00;;;;;;5074251;28;20028;-72
2021/05/08 06:46:07;;;;;;;8.55;4.68;;;10.30;62.90;;;;;;5056679;28;20036;-73
2021/05/08 06:48:32;;;;;;;11.02;4.50;;;10.40;62.90;;;;;;5092979;28;20019;-73
2021/05/08 06:50:58;;;;;;;9.50;4.30;;;10.40;62.90;;;;;;5088787;28;20477;-72
2021/05/08 06:53:23;;;;;;;7.43;4.68;;;10.40;62.60;;;;;;5091869;28;20035;-72
2021/05/08 06:55:49;;;;;;;6.95;4.57;;;10.40;62.70;;;;;;5061019;28;20106;-72
2021/05/08 06:58:14;;;;;;;9.07;4.80;;;10.40;62.60;;;;;;5070787;28;20028;-72
2021/05/08 07:00:41;;;;;;;7.95;4.80;;;10.50;62.70;;;;;;5073794;28;20117;-72
2021/05/08 07:03:06;;;;;;;9.15;4.50;;;10.50;62.60;;;;;;5072380;28;20032;-73
2021/05/08 07:05:32;;;;;;;6.95;4.85;;;10.50;62.80;;;;;;5090103;28;20028;-73
2021/05/08 07:08:01;;;;;;;8.93;4.25;;;10.60;62.70;;;;;;5074030;28;20020;-72
2021/05/08 07:10:27;;;;;;;6.47;4.18;;;10.60;62.70;;;;;;5074354;28;20039;-73
2021/05/08 07:12:53;;;;;;;5.45;4.32;;;10.70;62.70;;;;;;5074980;28;20032;-73
2021/05/08 07:15:18;;;;;;;7.10;4.30;;;10.80;62.90;;;;;;5091682;28;20396;-73
2021/05/08 07:17:44;;;;;;;5.32;4.00;;;10.80;63.50;;;;;;5092781;28;20039;-73
2021/05/08 07:20:10;;;;;;;6.65;4.07;;;10.90;62.30;;;;;;5090475;28;20124;-73
2021/05/08 07:22:36;;;;;;;6.07;3.90;;;10.90;61.90;;;;;;5091569;28;20035;-74
2021/05/08 07:25:01;;;;;;;7.45;4.25;;;11.00;61.90;;;;;;5061944;28;20031;-73
2021/05/08 07:27:27;;;;;;;6.43;4.20;;;11.10;61.60;;;;;;5056721;28;20032;-74
2021/05/08 07:29:52;;;;;;;8.63;4.30;;;11.20;61.70;;;;;;5074652;28;20057;-73
2021/05/08 07:32:18;;;;;;;4.97;3.80;;;11.20;61.50;;;;;;5076318;28;20028;-74
2021/05/08 07:34:43;;;;;;;6.05;4.45;;;11.30;61.30;;;;;;5076816;28;20174;-73
2021/05/08 07:37:09;;;;;;;8.02;4.15;;;11.40;60.60;;;;;;5083217;28;20416;-73
2021/05/08 07:39:35;;;;;;;6.03;3.80;;;11.50;60.40;;;;;;5093755;28;20044;-73
2021/05/08 07:42:01;;;;;;;6.13;4.25;;;11.60;60.30;;;;;;5087136;28;20557;-74
2021/05/08 07:44:26;;;;;;;7.82;4.05;;;11.70;60.20;;;;;;5066273;28;20029;-73
2021/05/08 07:46:52;;;;;;;5.93;4.32;;;11.80;60.00;;;;;;5084147;28;20017;-74
2021/05/08 07:49:17;;;;;;;8.38;4.40;;;11.80;59.80;;;;;;5061510;28;20518;-73
2021/05/08 07:51:43;;;;;;;8.63;4.38;;;11.90;59.70;;;;;;5092575;28;20035;-73
2021/05/08 07:54:08;;;;;;;6.78;4.15;;;12.00;59.70;;;;;;5095819;28;20093;-73
2021/05/08 07:56:35;;;;;;;6.82;4.25;;;12.10;59.70;;;;;;5095917;28;20119;-74
2021/05/08 07:59:01;;;;;;;7.45;4.30;;;12.10;59.70;;;;;;5084263;28;20054;-73
2021/05/08 08:01:27;;;;;;;7.00;4.40;;;12.20;59.60;;;;;;5076293;28;20028;-74
2021/05/08 08:03:52;;;;;;;9.75;4.57;;;12.20;59.40;;;;;;5110378;27;20106;-74
2021/05/08 08:06:18;;;;;;;6.68;4.70;;;12.20;59.50;;;;;;5097267;28;20382;-73
2021/05/08 08:08:43;;;;;;;9.10;4.70;;;12.30;59.10;;;;;;5093539;28;20107;-73
2021/05/08 08:11:09;;;;;;;7.53;4.75;;;12.30;59.20;;;;;;5062055;28;20137;-73
2021/05/08 08:13:35;;;;;;;7.60;5.00;;;12.40;59.10;;;;;;5069119;28;20074;-73
2021/05/08 08:16:01;;;;;;;15.20;5.47;;;12.50;58.90;;;;;;5067763;28;20102;-73
2021/05/08 08:18:27;;;;;;;11.05;5.40;;;12.60;59.10;;;;;;5093972;28;20105;-73
2021/05/08 08:20:53;;;;;;;8.95;5.22;;;12.70;58.80;;;;;;5077023;28;20454;-74
2021/05/08 08:23:19;;;;;;;11.75;5.38;;;12.80;58.30;;;;;;5069686;28;20041;-73
2021/05/08 08:25:46;;;;;;;10.60;5.72;;;12.90;58.40;;;;;;5077910;28;20078;-73
2021/05/08 08:28:11;;;;;;;8.05;5.25;;;12.90;58.20;;;;;;5089868;28;20023;-73
2021/05/08 08:30:37;;;;;;;9.68;5.32;;;13.00;58.20;;;;;;5094651;28;20106;-73
2021/05/08 08:33:02;;;;;;;9.07;5.63;;;13.00;58.10;;;;;;5072735;28;20492;-73
2021/05/08 08:35:28;;;;;;;7.38;4.85;;;13.00;58.90;;;;;;5077512;28;20125;-73
2021/05/08 08:37:54;;;;;;;7.93;4.82;;;13.10;58.30;;;;;;5093473;28;20048;-73
2021/05/08 08:40:21;;;;;;;8.38;4.55;;;13.20;58.10;;;;;;5075331;28;20028;-74
2021/05/08 08:42:47;;;;;;;8.52;5.03;;;13.30;57.50;;;;;;5066110;28;20023;-74
2021/05/08 08:45:13;;;;;;;6.88;4.35;;;13.50;57.30;;;;;;5092638;28;20473;-74
2021/05/08 08:47:39;;;;;;;5.78;4.45;;;13.70;57.00;;;;;;5081279;28;20073;-74
2021/05/08 08:50:12;;;;;;;10.65;4.53;;;13.90;56.40;;;;;;5060014;28;20469;-75
2021/05/08 08:52:39;;;;;;;9.57;4.50;;;14.10;55.80;;;;;;5067116;28;20028;-75
2021/05/08 08:55:07;;;;;;;10.40;4.47;;;14.20;55.30;;;;;;5099892;28;20055;-75
2021/05/08 08:57:45;;;;;;;16.92;4.10;;;14.30;54.50;;;;;;5056997;28;20029;-75
2021/05/08 09:00:14;;;;;;;6.97;4.03;;;14.50;54.50;;;;;;5086737;28;20032;-75
2021/05/08 09:02:41;;;;;;;7.53;3.58;;;14.80;54.10;;;;;;5093767;28;20070;-75
2021/05/08 09:05:12;;;;;;;8.52;4.10;;;15.00;53.80;;;;;;5092698;28;20103;-74
2021/05/08 09:07:42;;;;;;;7.60;3.80;;;15.10;53.60;;;;;;5108777;28;20082;-75
2021/05/08 09:10:08;;;;;;;10.43;4.03;;;15.20;53.30;;;;;;5086515;28;20019;-74
2021/05/08 09:12:47;;;;;;;6.40;3.88;;;15.30;53.00;;;;;;5114346;28;20091;-74
2021/05/08 09:15:13;;;;;;;8.45;3.22;;;15.30;52.70;;;;;;5086037;28;20527;-74
2021/05/08 09:17:44;;;;;;;6.43;3.28;;;15.40;52.30;;;;;;5094551;28;20032;-75
2021/05/08 09:20:11;;;;;;;8.02;3.10;;;15.50;51.50;;;;;;5090289;28;20023;-74
2021/05/08 09:22:41;;;;;;;7.45;2.97;;;15.60;50.80;;;;;;5095522;28;20032;-74
2021/05/08 09:25:15;;;;;;;6.93;2.95;;;15.60;50.60;;;;;;5089660;28;20016;-74
2021/05/08 09:27:51;;;;;;;6.72;2.63;;;15.60;50.30;;;;;;5093916;28;20016;-75
2021/05/08 09:30:25;;;;;;;7.18;2.70;;;15.70;50.00;;;;;;5075119;28;20388;-74
2021/05/08 09:32:54;;;;;;;4.45;2.47;;;15.80;49.70;;;;;;5061343;28;20037;-74
2021/05/08 09:35:22;;;;;;;6.22;2.38;;;15.90;48.90;;;;;;5089654;28;20028;-75
2021/05/08 09:37:49;;;;;;;7.07;2.50;;;15.90;48.60;;;;;;5074101;28;20045;-73
2021/05/08 09:40:26;;;;;;;4.35;2.25;;;15.90;48.00;;;;;;5082286;28;20036;-73
2021/05/08 09:42:56;;;;;;;4.18;2.10;;;15.90;47.30;;;;;;5083479;28;20038;-74
2021/05/08 09:45:26;;;;;;;8.88;2.30;;;15.90;47.60;;;;;;5075868;28;20430;-73
2021/05/08 09:47:53;;;;;;;9.77;2.40;;;16.00;47.80;;;;;;5091844;28;20020;-73
2021/05/08 09:50:22;;;;;;;7.28;2.33;;;16.00;48.40;;;;;;5079200;28;20032;-73
2021/05/08 09:52:57;;;;;;;7.65;2.30;;;16.10;48.10;;;;;;5081690;28;20078;-74
2021/05/08 09:55:24;;;;;;;3.42;2.28;;;16.20;48.30;;;;;;5060512;28;20071;-74
2021/05/08 09:58:08;;;;;;;5.65;2.33;;;16.30;48.10;;;;;;5090457;28;20028;-74
2021/05/08 10:00:41;;;;;;;6.65;2.20;;;16.40;47.50;;;;;;5087776;28;20089;-73
2021/05/08 10:03:14;;;;;;;5.93;2.00;;;16.40;47.90;;;;;;5069670;28;20029;-74
2021/05/08 10:05:41;;;;;;;3.95;2.15;;;16.40;48.40;;;;;;5094052;28;20058;-82
2021/05/08 10:08:09;;;;;;;4.22;1.85;;;16.50;48.20;;;;;;5076912;28;20020;-81
2021/05/08 10:10:35;;;;;;;3.75;1.80;;;16.50;48.60;;;;;;5094308;28;20032;-82
2021/05/08 10:13:11;;;;;;;3.17;1.70;;;16.50;48.30;;;;;;5094226;28;20024;-82
2021/05/08 10:15:39;;;;;;;3.90;1.90;;;16.60;48.50;;;;;;5061605;28;20400;-82
2021/05/08 10:18:07;;;;;;;4.03;1.70;;;16.60;48.40;;;;;;5073943;28;20497;-84
2021/05/08 10:20:35;;;;;;;6.13;1.60;;;16.60;47.30;;;;;;5056242;28;20128;-84
2021/05/08 10:23:08;;;;;;;4.43;1.88;;;16.60;46.70;;;;;;5056044;28;20032;-83
2021/05/08 10:25:35;;;;;;;4.97;2.00;;;16.50;47.20;;;;;;5073740;28;20016;-83
2021/05/08 10:28:01;;;;;;;6.15;1.92;;;16.50;47.10;;;;;;5077547;28;20020;-83
2021/05/08 10:30:35;;;;;;;4.57;1.73;;;16.40;47.00;;;;;;5085148;28;20032;-83
2021/05/08 10:33:11;;;;;;;2.63;1.38;;;16.50;47.40;;;;;;5073594;28;20056;-83
2021/05/08 10:35:42;;;;;;;4.18;1.55;;;16.40;47.70;;;;;;5073289;28;20104;-83
2021/05/08 10:38:13;;;;;;;4.95;1.80;;;16.50;47.80;;;;;;5073368;28;20171;-83
2021/05/08 10:41:13;;;;;;;3.10;1.52;;;16.50;48.20;;;;;;5082556;28;20059;-83
2021/05/08 10:43:49;;;;;;;4.63;1.40;;;16.50;47.70;;;;;;5082706;28;20365;-84
2021/05/08 10:46:20;;;;;;;5.63;1.05;;;16.40;47.90;;;;;;5093641;28;20027;-83
2021/05/08 10:49:09;;;;;;;2.50;1.15;;;16.40;48.90;;;;;;5075569;28;20020;-84
2021/05/08 10:51:53;;;;;;;;;;;16.30;50.40;;;;;;5075795;28;20032;-83
2021/05/08 10:54:39;;;;;;;5.85;1.40;;;16.20;50.70;;;;;;5093140;28;19904;-83
2021/05/08 10:57:27;;;;;;;3.33;1.55;;;16.10;51.60;;;;;;5093588;28;20107;-84
2021/05/08 11:00:02;;;;;;;5.72;2.00;;;16.00;53.10;;;;;;5091110;28;20099;-84
2021/05/08 11:02:41;;;;;;;3.25;1.27;;;15.90;53.30;;;;;;5086602;28;20024;-85
2021/05/08 11:05:23;;;;;;;1.87;1.23;;;15.80;53.10;;;;;;5093509;28;20500;-85
2021/05/08 11:07:48;;;;;;;1.73;1.10;;;15.80;53.40;;;;;;5092104;28;20258;-85
2021/05/08 11:10:36;;;;;;;3.30;1.00;;;15.70;53.80;;;;;;5108957;28;20036;-85
2021/05/08 11:13:09;;;;;;;1.60;0.80;;;15.60;54.60;;;;;;5096878;28;20032;-83
2021/05/08 11:15:53;;;;;;;2.53;1.35;;;15.50;56.00;;;;;;5097247;28;20030;-83
2021/05/08 11:18:32;;;;;;;2.70;1.08;;;15.40;56.50;;;;;;5114060;28;20042;-84
2021/05/08 11:20:58;;;;;;;3.63;1.00;;;15.20;56.80;;;;;;5078169;28;20051;-83
2021/05/08 11:23:24;;;;;;;1.40;0.80;;;15.10;57.10;;;;;;5081395;28;20027;-84
2021/05/08 11:25:50;;;;;;;1.60;1.08;;;15.00;58.00;;;;;;5046043;28;20024;-84
2021/05/08 11:28:16;;;;;;;1.77;1.10;;;14.90;58.90;;;;;;5097257;28;20020;-83
2021/05/08 11:30:54;;;;;;;1.55;0.88;;;14.90;59.60;;;;;;5097141;28;20358;-84
2021/05/08 11:33:25;;;;;;;5.32;1.05;;;14.80;60.20;;;;;;5097183;28;20146;-84
2021/05/08 11:36:01;;;;;;;2.80;1.10;;;14.80;60.50;;;;;;5097278;28;20473;-84
2021/05/08 11:38:27;;;;;;;3.72;1.08;;;14.80;61.30;;;;;;5062073;28;20052;-84
2021/05/08 11:40:53;;;;;;;4.00;1.20;;;14.80;61.70;;;;;;5096984;28;20095;-84
2021/05/08 11:43:26;;;;;;;4.43;1.30;;;14.80;62.70;;;;;;5096881;28;20024;-84
2021/05/08 11:45:53;;;;;;;1.83;1.20;;;14.80;64.20;;;;;;5096926;28;20350;-83
2021/05/08 11:48:19;;;;;;;4.35;1.58;;;14.80;64.30;;;;;;5096976;28;20059;-83
2021/05/08 11:50:47;;;;;;;3.60;1.40;;;14.80;63.90;;;;;;5078641;28;20056;-84
2021/05/08 11:53:17;;;;;;;3.60;1.30;;;14.70;63.50;;;;;;5081955;28;20546;-84
2021/05/08 11:55:47;;;;;;;2.67;1.23;;;14.60;62.90;;;;;;5095477;28;20063;-84
2021/05/08 11:58:25;;;;;;;3.05;1.13;;;14.60;63.40;;;;;;5095787;28;20028;-86
2021/05/08 12:00:50;;;;;;;2.70;1.10;;;14.50;63.50;;;;;;5090408;28;20459;-79
2021/05/08 12:03:17;;;;;;;4.35;1.30;;;14.50;63.70;;;;;;5072844;28;20273;-80
2021/05/08 12:05:47;;;;;;;2.53;1.02;;;14.60;63.80;;;;;;5074272;28;20035;-79
2021/05/08 12:08:14;;;;;;;1.85;1.00;;;14.60;63.90;;;;;;5073967;28;20024;-79
2021/05/08 12:10:42;;;;;;;2.63;1.33;;;14.60;63.70;;;;;;5073932;28;20063;-80
2021/05/08 12:13:08;;;;;;;4.13;1.27;;;14.60;63.40;;;;;;5091831;28;20056;-80
2021/05/08 12:15:36;;;;;;;3.95;1.20;;;14.50;63.80;;;;;;5091559;28;20039;-77
2021/05/08 12:18:03;;;;;;;2.33;1.30;;;14.50;64.40;;;;;;5073965;28;20115;-78
2021/05/08 12:20:31;;;;;;;1.98;1.00;;;14.60;64.70;;;;;;5095437;28;20028;-77
2021/05/08 12:23:04;;;;;;;2.95;1.20;;;14.60;64.80;;;;;;5111982;28;20031;-76
2021/05/08 12:25:30;;;;;;;2.58;1.05;;;14.60;64.50;;;;;;5098386;28;20392;-76
2021/05/08 12:28:19;;;;;;;1.77;1.10;;;14.60;64.00;;;;;;5102668;28;20387;-74
2021/05/08 12:30:47;;;;;;;1.52;0.95;;;14.60;64.00;;;;;;5068293;28;20071;-73
2021/05/08 12:33:20;;;;;;;3.70;1.35;;;14.60;64.30;;;;;;5082485;28;20060;-73
2021/05/08 12:35:48;;;;;;;2.20;1.00;;;14.70;64.40;;;;;;5094227;28;20481;-74
2021/05/08 12:38:16;;;;;;;3.95;1.10;;;14.70;64.10;;;;;;5094304;28;20055;-74
2021/05/08 12:40:42;;;;;;;1.58;1.00;;;14.80;64.30;;;;;;5094767;28;20554;-73
2021/05/08 12:43:08;;;;;;;1.95;1.25;;;14.70;64.00;;;;;;5075204;28;20031;-74
2021/05/08 12:45:34;;;;;;;2.15;1.30;;;14.70;64.00;;;;;;5088533;28;20081;-74
2021/05/08 12:47:59;;;;;;;2.30;1.02;;;14.60;64.10;;;;;;5075406;28;20042;-74
2021/05/08 12:50:34;;;;;;;3.95;1.20;;;14.60;64.40;;;;;;5060463;28;20035;-74
2021/05/08 12:53:02;;;;;;;1.85;1.00;;;14.60;64.80;;;;;;5095180;28;20034;-74